sensor_id;sensor_type;location;lat;lon;timestamp;temperature;humidity
22108;DHT22;11220;48.812;9.128;2023-07-31T00:01:20;22.40;87.30
22108;DHT22;11220;48.812;9.128;2023-07-31T00:03:46;22.40;87.40
22108;DHT22;11220;48.812;9.128;2023-07-31T00:06:12;22.40;87.40
22108;DHT22;11220;48.812;9.128;2023-07-31T00:08:38;22.30;87.30
22108;DHT22;11220;48.812;9.128;2023-07-31T00:11:03;22.30;87.40
22108;DHT22;11220;48.812;9.128;2023-07-31T00:13:29;22.40;87.40
22108;DHT22;11220;48.812;9.128;2023-07-31T00:15:54;22.40;87.50
22108;DHT22;11220;48.812;9.128;2023-07-31T00:18:20;22.30;87.50
22108;DHT22;11220;48.812;9.128;2023-07-31T00:20:45;22.50;87.60
22108;DHT22;11220;48.812;9.128;2023-07-31T00:23:11;22.40;87.60
22108;DHT22;11220;48.812;9.128;2023-07-31T00:25:36;22.30;87.60
22108;DHT22;11220;48.812;9.128;2023-07-31T00:28:02;22.30;87.70
22108;DHT22;11220;48.812;9.128;2023-07-31T00:30:28;22.30;87.70
22108;DHT22;11220;48.812;9.128;2023-07-31T00:32:53;22.20;87.70
22108;DHT22;11220;48.812;9.128;2023-07-31T00:35:19;22.30;87.80
22108;DHT22;11220;48.812;9.128;2023-07-31T00:37:44;22.30;87.80
22108;DHT22;11220;48.812;9.128;2023-07-31T00:40:10;22.20;87.80
22108;DHT22;11220;48.812;9.128;2023-07-31T00:42:35;22.20;87.80
22108;DHT22;11220;48.812;9.128;2023-07-31T00:45:01;22.20;87.80
22108;DHT22;11220;48.812;9.128;2023-07-31T00:47:26;22.20;87.90
22108;DHT22;11220;48.812;9.128;2023-07-31T00:49:52;22.40;87.90
22108;DHT22;11220;48.812;9.128;2023-07-31T00:52:18;22.20;87.90
22108;DHT22;11220;48.812;9.128;2023-07-31T00:54:44;22.40;88.00
22108;DHT22;11220;48.812;9.128;2023-07-31T00:57:10;22.20;88.00
22108;DHT22;11220;48.812;9.128;2023-07-31T00:59:36;22.20;88.10
22108;DHT22;11220;48.812;9.128;2023-07-31T01:02:02;22.20;88.10
22108;DHT22;11220;48.812;9.128;2023-07-31T01:04:28;22.20;89.00
22108;DHT22;11220;48.812;9.128;2023-07-31T01:12:02;22.10;88.10
22108;DHT22;11220;48.812;9.128;2023-07-31T01:14:28;22.10;88.00
22108;DHT22;11220;48.812;9.128;2023-07-31T01:16:54;22.20;88.10
22108;DHT22;11220;48.812;9.128;2023-07-31T01:19:24;22.10;88.10
22108;DHT22;11220;48.812;9.128;2023-07-31T01:21:59;22.10;88.20
22108;DHT22;11220;48.812;9.128;2023-07-31T01:27:24;22.10;88.20
22108;DHT22;11220;48.812;9.128;2023-07-31T01:30:03;22.10;88.30
22108;DHT22;11220;48.812;9.128;2023-07-31T01:32:36;22.10;88.30
22108;DHT22;11220;48.812;9.128;2023-07-31T01:35:04;22.10;88.40
22108;DHT22;11220;48.812;9.128;2023-07-31T01:37:30;22.10;88.50
22108;DHT22;11220;48.812;9.128;2023-07-31T01:39:55;22.10;88.50
22108;DHT22;11220;48.812;9.128;2023-07-31T01:42:21;22.10;88.60
22108;DHT22;11220;48.812;9.128;2023-07-31T01:44:47;22.10;88.60
22108;DHT22;11220;48.812;9.128;2023-07-31T01:47:12;22.10;88.70
22108;DHT22;11220;48.812;9.128;2023-07-31T01:49:37;22.10;88.70
22108;DHT22;11220;48.812;9.128;2023-07-31T01:52:04;22.10;88.70
22108;DHT22;11220;48.812;9.128;2023-07-31T01:54:30;22.10;88.70
22108;DHT22;11220;48.812;9.128;2023-07-31T01:56:56;22.40;88.80
22108;DHT22;11220;48.812;9.128;2023-07-31T01:59:21;22.20;88.80
22108;DHT22;11220;48.812;9.128;2023-07-31T02:01:47;22.00;88.60
22108;DHT22;11220;48.812;9.128;2023-07-31T02:04:12;22.10;88.80
22108;DHT22;11220;48.812;9.128;2023-07-31T02:06:38;22.00;88.70
22108;DHT22;11220;48.812;9.128;2023-07-31T02:09:04;22.00;88.60
22108;DHT22;11220;48.812;9.128;2023-07-31T02:11:29;22.00;88.60
22108;DHT22;11220;48.812;9.128;2023-07-31T02:13:55;22.00;88.50
22108;DHT22;11220;48.812;9.128;2023-07-31T02:16:20;22.00;88.50
22108;DHT22;11220;48.812;9.128;2023-07-31T02:18:46;22.00;88.50
22108;DHT22;11220;48.812;9.128;2023-07-31T02:21:11;22.00;88.60
22108;DHT22;11220;48.812;9.128;2023-07-31T02:23:37;22.00;88.60
22108;DHT22;11220;48.812;9.128;2023-07-31T02:26:02;22.00;88.60
22108;DHT22;11220;48.812;9.128;2023-07-31T02:28:29;22.00;88.60
22108;DHT22;11220;48.812;9.128;2023-07-31T02:30:54;22.00;89.00
22108;DHT22;11220;48.812;9.128;2023-07-31T02:33:20;22.00;88.50
22108;DHT22;11220;48.812;9.128;2023-07-31T02:35:45;22.00;88.40
22108;DHT22;11220;48.812;9.128;2023-07-31T02:38:11;22.00;88.40
22108;DHT22;11220;48.812;9.128;2023-07-31T02:40:36;22.00;88.30
22108;DHT22;11220;48.812;9.128;2023-07-31T02:43:02;22.00;88.20
22108;DHT22;11220;48.812;9.128;2023-07-31T02:45:27;21.90;88.20
22108;DHT22;11220;48.812;9.128;2023-07-31T02:47:53;22.00;88.30
22108;DHT22;11220;48.812;9.128;2023-07-31T02:50:18;21.90;88.40
22108;DHT22;11220;48.812;9.128;2023-07-31T02:52:44;21.90;88.50
22108;DHT22;11220;48.812;9.128;2023-07-31T02:55:09;22.00;88.50
22108;DHT22;11220;48.812;9.128;2023-07-31T02:57:35;21.80;88.40
22108;DHT22;11220;48.812;9.128;2023-07-31T03:00:00;21.80;88.40
22108;DHT22;11220;48.812;9.128;2023-07-31T03:02:26;21.90;88.40
22108;DHT22;11220;48.812;9.128;2023-07-31T03:04:52;21.90;88.40
22108;DHT22;11220;48.812;9.128;2023-07-31T03:07:17;21.90;88.40
22108;DHT22;11220;48.812;9.128;2023-07-31T03:09:43;21.90;88.50
22108;DHT22;11220;48.812;9.128;2023-07-31T03:12:08;21.90;88.50
22108;DHT22;11220;48.812;9.128;2023-07-31T03:14:34;21.90;88.60
22108;DHT22;11220;48.812;9.128;2023-07-31T03:16:59;21.90;88.60
22108;DHT22;11220;48.812;9.128;2023-07-31T03:19:25;21.90;88.60
22108;DHT22;11220;48.812;9.128;2023-07-31T03:21:50;21.90;88.70
22108;DHT22;11220;48.812;9.128;2023-07-31T03:24:16;21.90;88.60
22108;DHT22;11220;48.812;9.128;2023-07-31T03:26:41;21.90;88.60
22108;DHT22;11220;48.812;9.128;2023-07-31T03:29:08;21.90;88.70
22108;DHT22;11220;48.812;9.128;2023-07-31T03:31:33;22.20;88.80
22108;DHT22;11220;48.812;9.128;2023-07-31T03:33:59;21.80;88.60
22108;DHT22;11220;48.812;9.128;2023-07-31T03:36:24;21.90;88.70
22108;DHT22;11220;48.812;9.128;2023-07-31T03:38:52;21.90;88.70
22108;DHT22;11220;48.812;9.128;2023-07-31T03:41:17;21.80;88.60
22108;DHT22;11220;48.812;9.128;2023-07-31T03:43:43;21.80;88.70
22108;DHT22;11220;48.812;9.128;2023-07-31T03:46:08;21.80;88.80
22108;DHT22;11220;48.812;9.128;2023-07-31T03:48:34;21.90;88.80
22108;DHT22;11220;48.812;9.128;2023-07-31T03:50:59;21.80;88.70
22108;DHT22;11220;48.812;9.128;2023-07-31T03:53:25;21.80;88.70
22108;DHT22;11220;48.812;9.128;2023-07-31T03:55:50;21.80;88.60
22108;DHT22;11220;48.812;9.128;2023-07-31T03:58:16;21.90;88.60
22108;DHT22;11220;48.812;9.128;2023-07-31T04:00:41;21.80;88.50
22108;DHT22;11220;48.812;9.128;2023-07-31T04:03:07;21.80;88.60
22108;DHT22;11220;48.812;9.128;2023-07-31T04:05:33;21.80;88.60
22108;DHT22;11220;48.812;9.128;2023-07-31T04:07:58;21.80;88.60
22108;DHT22;11220;48.812;9.128;2023-07-31T04:10:24;21.80;88.60
22108;DHT22;11220;48.812;9.128;2023-07-31T04:12:50;21.80;88.60
22108;DHT22;11220;48.812;9.128;2023-07-31T04:15:15;21.80;88.50
22108;DHT22;11220;48.812;9.128;2023-07-31T04:17:41;21.80;88.50
22108;DHT22;11220;48.812;9.128;2023-07-31T04:20:07;21.80;88.60
22108;DHT22;11220;48.812;9.128;2023-07-31T04:22:32;21.80;88.60
22108;DHT22;11220;48.812;9.128;2023-07-31T04:24:58;21.80;88.60
22108;DHT22;11220;48.812;9.128;2023-07-31T04:27:25;21.80;88.60
22108;DHT22;11220;48.812;9.128;2023-07-31T04:29:50;21.80;88.60
22108;DHT22;11220;48.812;9.128;2023-07-31T04:32:16;21.80;89.50
22108;DHT22;11220;48.812;9.128;2023-07-31T04:34:42;21.80;88.50
22108;DHT22;11220;48.812;9.128;2023-07-31T04:37:08;21.80;88.30
22108;DHT22;11220;48.812;9.128;2023-07-31T04:39:33;21.70;88.30
22108;DHT22;11220;48.812;9.128;2023-07-31T04:41:59;21.80;88.50
22108;DHT22;11220;48.812;9.128;2023-07-31T04:44:24;21.80;88.40
22108;DHT22;11220;48.812;9.128;2023-07-31T04:46:50;21.80;88.30
22108;DHT22;11220;48.812;9.128;2023-07-31T04:49:15;21.80;88.30
22108;DHT22;11220;48.812;9.128;2023-07-31T04:51:41;21.80;88.40
22108;DHT22;11220;48.812;9.128;2023-07-31T04:54:06;21.80;88.50
22108;DHT22;11220;48.812;9.128;2023-07-31T04:56:32;21.80;88.40
22108;DHT22;11220;48.812;9.128;2023-07-31T04:58:57;21.80;88.30
22108;DHT22;11220;48.812;9.128;2023-07-31T05:01:23;21.80;88.30
22108;DHT22;11220;48.812;9.128;2023-07-31T05:03:48;21.70;88.20
22108;DHT22;11220;48.812;9.128;2023-07-31T05:06:14;21.80;88.30
22108;DHT22;11220;48.812;9.128;2023-07-31T05:08:40;21.80;88.30
22108;DHT22;11220;48.812;9.128;2023-07-31T05:11:06;21.80;88.20
22108;DHT22;11220;48.812;9.128;2023-07-31T05:13:31;21.80;88.30
22108;DHT22;11220;48.812;9.128;2023-07-31T05:15:57;21.70;88.20
22108;DHT22;11220;48.812;9.128;2023-07-31T05:18:22;21.80;88.20
22108;DHT22;11220;48.812;9.128;2023-07-31T05:20:48;21.80;88.20
22108;DHT22;11220;48.812;9.128;2023-07-31T05:23:13;21.80;88.30
22108;DHT22;11220;48.812;9.128;2023-07-31T05:25:39;21.80;88.50
22108;DHT22;11220;48.812;9.128;2023-07-31T05:28:05;21.80;88.50
22108;DHT22;11220;48.812;9.128;2023-07-31T05:30:31;21.80;88.50
22108;DHT22;11220;48.812;9.128;2023-07-31T05:32:56;21.80;88.40
22108;DHT22;11220;48.812;9.128;2023-07-31T05:35:22;21.80;88.30
22108;DHT22;11220;48.812;9.128;2023-07-31T05:37:47;21.70;88.00
22108;DHT22;11220;48.812;9.128;2023-07-31T05:40:13;21.80;88.00
22108;DHT22;11220;48.812;9.128;2023-07-31T05:42:39;21.80;87.90
22108;DHT22;11220;48.812;9.128;2023-07-31T05:45:06;21.80;88.00
22108;DHT22;11220;48.812;9.128;2023-07-31T05:47:31;21.80;88.00
22108;DHT22;11220;48.812;9.128;2023-07-31T05:49:57;21.80;87.90
22108;DHT22;11220;48.812;9.128;2023-07-31T05:52:22;21.80;88.60
22108;DHT22;11220;48.812;9.128;2023-07-31T05:54:48;21.80;87.70
22108;DHT22;11220;48.812;9.128;2023-07-31T05:57:13;21.80;87.60
22108;DHT22;11220;48.812;9.128;2023-07-31T05:59:39;21.80;87.70
22108;DHT22;11220;48.812;9.128;2023-07-31T06:02:05;21.80;87.70
22108;DHT22;11220;48.812;9.128;2023-07-31T06:04:31;21.80;87.50
22108;DHT22;11220;48.812;9.128;2023-07-31T06:06:56;21.80;87.50
22108;DHT22;11220;48.812;9.128;2023-07-31T06:09:24;21.80;87.60
22108;DHT22;11220;48.812;9.128;2023-07-31T06:11:51;21.90;87.70
22108;DHT22;11220;48.812;9.128;2023-07-31T06:14:17;21.90;87.70
22108;DHT22;11220;48.812;9.128;2023-07-31T06:16:43;21.90;87.60
22108;DHT22;11220;48.812;9.128;2023-07-31T06:19:09;21.90;87.60
22108;DHT22;11220;48.812;9.128;2023-07-31T06:21:35;21.90;87.50
22108;DHT22;11220;48.812;9.128;2023-07-31T06:24:03;21.90;87.50
22108;DHT22;11220;48.812;9.128;2023-07-31T06:26:28;21.90;87.50
22108;DHT22;11220;48.812;9.128;2023-07-31T06:28:54;21.90;87.50
22108;DHT22;11220;48.812;9.128;2023-07-31T06:31:19;21.90;87.40
22108;DHT22;11220;48.812;9.128;2023-07-31T06:33:48;22.00;87.40
22108;DHT22;11220;48.812;9.128;2023-07-31T06:36:14;21.90;87.30
22108;DHT22;11220;48.812;9.128;2023-07-31T06:38:39;21.90;87.40
22108;DHT22;11220;48.812;9.128;2023-07-31T06:41:05;22.00;87.50
22108;DHT22;11220;48.812;9.128;2023-07-31T06:43:30;22.00;87.60
22108;DHT22;11220;48.812;9.128;2023-07-31T06:45:56;22.00;87.30
22108;DHT22;11220;48.812;9.128;2023-07-31T06:48:21;22.00;87.20
22108;DHT22;11220;48.812;9.128;2023-07-31T06:50:47;22.00;87.20
22108;DHT22;11220;48.812;9.128;2023-07-31T06:53:13;22.00;87.10
22108;DHT22;11220;48.812;9.128;2023-07-31T06:55:38;22.00;87.10
22108;DHT22;11220;48.812;9.128;2023-07-31T06:58:04;22.00;87.00
22108;DHT22;11220;48.812;9.128;2023-07-31T07:00:29;22.00;87.10
22108;DHT22;11220;48.812;9.128;2023-07-31T07:02:55;22.00;87.10
22108;DHT22;11220;48.812;9.128;2023-07-31T07:05:20;22.00;87.00
22108;DHT22;11220;48.812;9.128;2023-07-31T07:07:46;22.00;87.00
22108;DHT22;11220;48.812;9.128;2023-07-31T07:10:12;22.00;87.50
22108;DHT22;11220;48.812;9.128;2023-07-31T07:12:37;22.10;87.60
22108;DHT22;11220;48.812;9.128;2023-07-31T07:15:03;22.00;87.40
22108;DHT22;11220;48.812;9.128;2023-07-31T07:17:29;22.00;87.30
22108;DHT22;11220;48.812;9.128;2023-07-31T07:19:59;22.10;87.50
22108;DHT22;11220;48.812;9.128;2023-07-31T07:22:25;22.10;87.40
22108;DHT22;11220;48.812;9.128;2023-07-31T07:24:52;22.10;87.40
22108;DHT22;11220;48.812;9.128;2023-07-31T07:27:17;22.10;87.80
22108;DHT22;11220;48.812;9.128;2023-07-31T07:29:43;22.10;88.20
22108;DHT22;11220;48.812;9.128;2023-07-31T07:32:08;22.10;88.30
22108;DHT22;11220;48.812;9.128;2023-07-31T07:34:35;22.10;88.10
22108;DHT22;11220;48.812;9.128;2023-07-31T07:37:00;22.10;88.10
22108;DHT22;11220;48.812;9.128;2023-07-31T07:39:26;22.10;88.10
22108;DHT22;11220;48.812;9.128;2023-07-31T07:41:51;22.10;88.10
22108;DHT22;11220;48.812;9.128;2023-07-31T07:44:18;22.10;88.00
22108;DHT22;11220;48.812;9.128;2023-07-31T07:46:44;22.10;88.10
22108;DHT22;11220;48.812;9.128;2023-07-31T07:49:09;22.10;88.00
22108;DHT22;11220;48.812;9.128;2023-07-31T07:51:35;22.20;88.60
22108;DHT22;11220;48.812;9.128;2023-07-31T07:54:01;22.20;88.90
22108;DHT22;11220;48.812;9.128;2023-07-31T07:56:27;22.20;89.00
22108;DHT22;11220;48.812;9.128;2023-07-31T07:58:53;22.20;89.00
22108;DHT22;11220;48.812;9.128;2023-07-31T08:01:19;22.20;89.00
22108;DHT22;11220;48.812;9.128;2023-07-31T08:03:44;22.20;88.90
22108;DHT22;11220;48.812;9.128;2023-07-31T08:06:10;22.20;89.10
22108;DHT22;11220;48.812;9.128;2023-07-31T08:08:36;22.20;89.20
22108;DHT22;11220;48.812;9.128;2023-07-31T08:11:02;22.20;89.40
22108;DHT22;11220;48.812;9.128;2023-07-31T08:13:28;22.20;89.40
22108;DHT22;11220;48.812;9.128;2023-07-31T08:15:53;22.30;89.50
22108;DHT22;11220;48.812;9.128;2023-07-31T08:18:19;22.30;89.80
22108;DHT22;11220;48.812;9.128;2023-07-31T08:20:45;22.30;89.80
22108;DHT22;11220;48.812;9.128;2023-07-31T08:23:11;22.30;89.70
22108;DHT22;11220;48.812;9.128;2023-07-31T08:25:36;22.30;89.60
22108;DHT22;11220;48.812;9.128;2023-07-31T08:28:03;22.40;89.70
22108;DHT22;11220;48.812;9.128;2023-07-31T08:30:29;22.40;89.70
22108;DHT22;11220;48.812;9.128;2023-07-31T08:32:55;22.40;89.70
22108;DHT22;11220;48.812;9.128;2023-07-31T08:35:20;22.40;89.70
22108;DHT22;11220;48.812;9.128;2023-07-31T08:37:46;22.60;89.50
22108;DHT22;11220;48.812;9.128;2023-07-31T08:40:11;22.40;89.30
22108;DHT22;11220;48.812;9.128;2023-07-31T08:42:45;22.50;89.30
22108;DHT22;11220;48.812;9.128;2023-07-31T08:45:18;22.50;89.40
22108;DHT22;11220;48.812;9.128;2023-07-31T08:47:48;22.60;89.20
22108;DHT22;11220;48.812;9.128;2023-07-31T08:50:16;22.50;89.20
22108;DHT22;11220;48.812;9.128;2023-07-31T08:52:41;22.50;89.10
22108;DHT22;11220;48.812;9.128;2023-07-31T08:55:08;22.50;89.20
22108;DHT22;11220;48.812;9.128;2023-07-31T08:57:37;22.60;89.10
22108;DHT22;11220;48.812;9.128;2023-07-31T09:00:08;22.50;89.00
22108;DHT22;11220;48.812;9.128;2023-07-31T09:02:58;22.60;89.00
22108;DHT22;11220;48.812;9.128;2023-07-31T09:05:26;22.60;88.90
22108;DHT22;11220;48.812;9.128;2023-07-31T09:07:53;22.60;89.00
22108;DHT22;11220;48.812;9.128;2023-07-31T09:10:20;22.60;89.20
22108;DHT22;11220;48.812;9.128;2023-07-31T09:12:46;22.50;89.30
22108;DHT22;11220;48.812;9.128;2023-07-31T09:15:13;22.60;89.50
22108;DHT22;11220;48.812;9.128;2023-07-31T09:17:39;22.50;89.60
22108;DHT22;11220;48.812;9.128;2023-07-31T09:22:40;22.50;89.60
22108;DHT22;11220;48.812;9.128;2023-07-31T09:25:22;22.50;89.70
22108;DHT22;11220;48.812;9.128;2023-07-31T09:30:21;22.60;89.80
22108;DHT22;11220;48.812;9.128;2023-07-31T09:32:48;22.60;90.00
22108;DHT22;11220;48.812;9.128;2023-07-31T09:35:30;22.50;89.90
22108;DHT22;11220;48.812;9.128;2023-07-31T09:38:04;22.60;90.00
22108;DHT22;11220;48.812;9.128;2023-07-31T09:40:32;22.50;90.00
22108;DHT22;11220;48.812;9.128;2023-07-31T09:43:08;22.60;90.10
22108;DHT22;11220;48.812;9.128;2023-07-31T09:45:39;22.60;90.10
22108;DHT22;11220;48.812;9.128;2023-07-31T09:48:13;22.60;90.10
22108;DHT22;11220;48.812;9.128;2023-07-31T09:50:42;22.70;90.10
22108;DHT22;11220;48.812;9.128;2023-07-31T09:53:09;22.60;90.10
22108;DHT22;11220;48.812;9.128;2023-07-31T09:55:35;22.70;90.20
22108;DHT22;11220;48.812;9.128;2023-07-31T09:58:06;22.70;90.20
22108;DHT22;11220;48.812;9.128;2023-07-31T10:00:32;22.80;90.20
22108;DHT22;11220;48.812;9.128;2023-07-31T10:02:59;22.70;90.20
22108;DHT22;11220;48.812;9.128;2023-07-31T10:05:31;22.80;90.30
22108;DHT22;11220;48.812;9.128;2023-07-31T10:07:59;22.70;90.20
22108;DHT22;11220;48.812;9.128;2023-07-31T10:10:25;22.70;90.20
22108;DHT22;11220;48.812;9.128;2023-07-31T10:12:52;22.80;90.30
22108;DHT22;11220;48.812;9.128;2023-07-31T10:15:18;22.80;90.30
22108;DHT22;11220;48.812;9.128;2023-07-31T10:17:47;22.80;90.20
22108;DHT22;11220;48.812;9.128;2023-07-31T10:20:14;22.80;90.20
22108;DHT22;11220;48.812;9.128;2023-07-31T10:22:42;22.80;90.20
22108;DHT22;11220;48.812;9.128;2023-07-31T10:25:08;22.60;90.20
22108;DHT22;11220;48.812;9.128;2023-07-31T10:27:35;22.60;90.20
22108;DHT22;11220;48.812;9.128;2023-07-31T10:30:03;22.80;90.20
22108;DHT22;11220;48.812;9.128;2023-07-31T10:32:30;22.80;90.20
22108;DHT22;11220;48.812;9.128;2023-07-31T10:34:56;22.80;90.20
22108;DHT22;11220;48.812;9.128;2023-07-31T10:40:02;22.80;90.10
22108;DHT22;11220;48.812;9.128;2023-07-31T10:45:04;22.80;90.10
22108;DHT22;11220;48.812;9.128;2023-07-31T10:47:30;22.80;90.10
22108;DHT22;11220;48.812;9.128;2023-07-31T10:50:20;22.80;90.10
22108;DHT22;11220;48.812;9.128;2023-07-31T10:52:51;22.80;90.00
22108;DHT22;11220;48.812;9.128;2023-07-31T10:55:32;22.90;90.00
22108;DHT22;11220;48.812;9.128;2023-07-31T10:58:09;22.80;89.70
22108;DHT22;11220;48.812;9.128;2023-07-31T11:00:40;22.90;89.40
22108;DHT22;11220;48.812;9.128;2023-07-31T11:03:08;22.90;89.30
22108;DHT22;11220;48.812;9.128;2023-07-31T11:06:02;22.90;90.10
22108;DHT22;11220;48.812;9.128;2023-07-31T11:08:40;22.90;89.10
22108;DHT22;11220;48.812;9.128;2023-07-31T11:11:08;23.00;89.20
22108;DHT22;11220;48.812;9.128;2023-07-31T11:16:09;23.00;89.30
22108;DHT22;11220;48.812;9.128;2023-07-31T11:18:35;23.40;89.70
22108;DHT22;11220;48.812;9.128;2023-07-31T11:21:01;23.40;89.70
22108;DHT22;11220;48.812;9.128;2023-07-31T11:23:27;23.10;89.60
22108;DHT22;11220;48.812;9.128;2023-07-31T11:25:52;23.20;89.90
22108;DHT22;11220;48.812;9.128;2023-07-31T11:28:23;23.10;89.90
22108;DHT22;11220;48.812;9.128;2023-07-31T11:30:49;23.60;90.00
22108;DHT22;11220;48.812;9.128;2023-07-31T11:33:15;23.10;89.70
22108;DHT22;11220;48.812;9.128;2023-07-31T11:35:46;23.10;90.30
22108;DHT22;11220;48.812;9.128;2023-07-31T11:38:14;23.10;89.80
22108;DHT22;11220;48.812;9.128;2023-07-31T11:40:46;23.10;89.80
22108;DHT22;11220;48.812;9.128;2023-07-31T11:43:12;23.10;89.80
22108;DHT22;11220;48.812;9.128;2023-07-31T11:45:42;23.10;89.60
22108;DHT22;11220;48.812;9.128;2023-07-31T11:48:09;23.10;89.50
22108;DHT22;11220;48.812;9.128;2023-07-31T11:50:35;23.10;89.40
22108;DHT22;11220;48.812;9.128;2023-07-31T11:53:06;23.10;89.30
22108;DHT22;11220;48.812;9.128;2023-07-31T11:55:32;23.10;89.10
22108;DHT22;11220;48.812;9.128;2023-07-31T11:57:59;23.10;89.10
22108;DHT22;11220;48.812;9.128;2023-07-31T12:00:25;23.10;89.00
22108;DHT22;11220;48.812;9.128;2023-07-31T12:02:51;23.10;89.10
22108;DHT22;11220;48.812;9.128;2023-07-31T12:05:18;23.10;89.10
22108;DHT22;11220;48.812;9.128;2023-07-31T12:07:49;23.10;89.00
22108;DHT22;11220;48.812;9.128;2023-07-31T12:10:29;23.10;89.00
22108;DHT22;11220;48.812;9.128;2023-07-31T12:13:04;23.10;89.10
22108;DHT22;11220;48.812;9.128;2023-07-31T12:15:43;23.10;89.10
22108;DHT22;11220;48.812;9.128;2023-07-31T12:18:19;23.10;89.20
22108;DHT22;11220;48.812;9.128;2023-07-31T12:20:47;23.10;89.30
22108;DHT22;11220;48.812;9.128;2023-07-31T12:23:14;23.10;89.30
22108;DHT22;11220;48.812;9.128;2023-07-31T12:25:40;23.10;89.30
22108;DHT22;11220;48.812;9.128;2023-07-31T12:28:06;23.10;89.20
22108;DHT22;11220;48.812;9.128;2023-07-31T12:30:37;23.20;89.10
22108;DHT22;11220;48.812;9.128;2023-07-31T12:33:04;23.10;89.00
22108;DHT22;11220;48.812;9.128;2023-07-31T12:35:38;23.20;89.20
22108;DHT22;11220;48.812;9.128;2023-07-31T12:38:03;23.20;89.20
22108;DHT22;11220;48.812;9.128;2023-07-31T12:40:29;23.20;89.20
22108;DHT22;11220;48.812;9.128;2023-07-31T12:42:55;23.20;89.20
22108;DHT22;11220;48.812;9.128;2023-07-31T12:45:20;23.20;89.10
22108;DHT22;11220;48.812;9.128;2023-07-31T12:47:46;23.10;89.00
22108;DHT22;11220;48.812;9.128;2023-07-31T12:50:12;23.20;89.00
22108;DHT22;11220;48.812;9.128;2023-07-31T12:52:38;23.20;88.90
22108;DHT22;11220;48.812;9.128;2023-07-31T12:55:03;23.20;88.80
22108;DHT22;11220;48.812;9.128;2023-07-31T12:57:30;23.20;88.70
22108;DHT22;11220;48.812;9.128;2023-07-31T12:59:55;23.60;88.90
22108;DHT22;11220;48.812;9.128;2023-07-31T13:02:21;23.20;88.60
22108;DHT22;11220;48.812;9.128;2023-07-31T13:04:47;23.30;88.60
22108;DHT22;11220;48.812;9.128;2023-07-31T13:07:12;23.30;89.50
22108;DHT22;11220;48.812;9.128;2023-07-31T13:09:38;23.30;88.60
22108;DHT22;11220;48.812;9.128;2023-07-31T13:12:03;23.20;88.60
22108;DHT22;11220;48.812;9.128;2023-07-31T13:14:29;23.30;88.80
22108;DHT22;11220;48.812;9.128;2023-07-31T13:16:55;23.20;88.90
22108;DHT22;11220;48.812;9.128;2023-07-31T13:19:20;23.20;89.00
22108;DHT22;11220;48.812;9.128;2023-07-31T13:21:46;23.10;88.80
22108;DHT22;11220;48.812;9.128;2023-07-31T13:24:11;23.20;88.90
22108;DHT22;11220;48.812;9.128;2023-07-31T13:26:37;23.20;89.00
22108;DHT22;11220;48.812;9.128;2023-07-31T13:29:02;23.20;88.90
22108;DHT22;11220;48.812;9.128;2023-07-31T13:31:28;23.10;88.70
22108;DHT22;11220;48.812;9.128;2023-07-31T13:33:53;23.20;89.50
22108;DHT22;11220;48.812;9.128;2023-07-31T13:36:19;23.20;88.40
22108;DHT22;11220;48.812;9.128;2023-07-31T13:38:44;23.30;88.30
22108;DHT22;11220;48.812;9.128;2023-07-31T13:41:10;23.30;88.10
22108;DHT22;11220;48.812;9.128;2023-07-31T13:43:35;23.30;88.20
22108;DHT22;11220;48.812;9.128;2023-07-31T13:46:01;23.30;88.20
22108;DHT22;11220;48.812;9.128;2023-07-31T13:48:34;23.30;88.40
22108;DHT22;11220;48.812;9.128;2023-07-31T13:51:00;23.40;88.50
22108;DHT22;11220;48.812;9.128;2023-07-31T13:53:25;23.30;88.40
22108;DHT22;11220;48.812;9.128;2023-07-31T13:55:51;23.30;88.50
22108;DHT22;11220;48.812;9.128;2023-07-31T13:58:17;23.30;88.50
22108;DHT22;11220;48.812;9.128;2023-07-31T14:00:43;23.40;88.60
22108;DHT22;11220;48.812;9.128;2023-07-31T14:03:08;23.30;88.50
22108;DHT22;11220;48.812;9.128;2023-07-31T14:05:35;23.40;88.60
22108;DHT22;11220;48.812;9.128;2023-07-31T14:08:00;23.40;88.50
22108;DHT22;11220;48.812;9.128;2023-07-31T14:10:26;23.40;88.40
22108;DHT22;11220;48.812;9.128;2023-07-31T14:12:52;23.40;88.30
22108;DHT22;11220;48.812;9.128;2023-07-31T14:15:17;23.40;88.20
22108;DHT22;11220;48.812;9.128;2023-07-31T14:17:42;23.40;88.30
22108;DHT22;11220;48.812;9.128;2023-07-31T14:20:09;23.50;88.20
22108;DHT22;11220;48.812;9.128;2023-07-31T14:22:35;23.50;88.00
22108;DHT22;11220;48.812;9.128;2023-07-31T14:25:01;23.50;87.90
22108;DHT22;11220;48.812;9.128;2023-07-31T14:27:27;23.60;87.80
22108;DHT22;11220;48.812;9.128;2023-07-31T14:29:52;23.60;87.60
22108;DHT22;11220;48.812;9.128;2023-07-31T14:32:18;23.70;87.50
22108;DHT22;11220;48.812;9.128;2023-07-31T14:34:43;23.60;87.50
22108;DHT22;11220;48.812;9.128;2023-07-31T14:37:09;23.70;87.60
22108;DHT22;11220;48.812;9.128;2023-07-31T14:39:34;23.70;87.50
22108;DHT22;11220;48.812;9.128;2023-07-31T14:41:59;23.60;87.50
22108;DHT22;11220;48.812;9.128;2023-07-31T14:44:25;23.70;87.60
22108;DHT22;11220;48.812;9.128;2023-07-31T14:46:51;23.70;87.60
22108;DHT22;11220;48.812;9.128;2023-07-31T14:49:16;23.80;87.60
22108;DHT22;11220;48.812;9.128;2023-07-31T14:51:42;23.80;87.70
22108;DHT22;11220;48.812;9.128;2023-07-31T14:54:07;23.70;87.70
22108;DHT22;11220;48.812;9.128;2023-07-31T14:56:34;23.80;87.80
22108;DHT22;11220;48.812;9.128;2023-07-31T14:58:59;23.80;88.00
22108;DHT22;11220;48.812;9.128;2023-07-31T15:01:25;23.70;87.90
22108;DHT22;11220;48.812;9.128;2023-07-31T15:03:50;23.70;87.60
22108;DHT22;11220;48.812;9.128;2023-07-31T15:06:16;23.80;87.60
22108;DHT22;11220;48.812;9.128;2023-07-31T15:08:41;23.80;87.60
22108;DHT22;11220;48.812;9.128;2023-07-31T15:11:07;23.60;87.40
22108;DHT22;11220;48.812;9.128;2023-07-31T15:13:33;23.70;87.40
22108;DHT22;11220;48.812;9.128;2023-07-31T15:15:59;23.70;87.40
22108;DHT22;11220;48.812;9.128;2023-07-31T15:18:25;23.70;88.30
22108;DHT22;11220;48.812;9.128;2023-07-31T15:20:51;23.80;87.40
22108;DHT22;11220;48.812;9.128;2023-07-31T15:23:16;23.70;87.10
22108;DHT22;11220;48.812;9.128;2023-07-31T15:25:42;23.80;86.80
22108;DHT22;11220;48.812;9.128;2023-07-31T15:28:08;23.80;86.60
22108;DHT22;11220;48.812;9.128;2023-07-31T15:30:35;23.90;86.50
22108;DHT22;11220;48.812;9.128;2023-07-31T15:33:01;23.90;86.30
22108;DHT22;11220;48.812;9.128;2023-07-31T15:35:27;24.00;86.20
22108;DHT22;11220;48.812;9.128;2023-07-31T15:37:52;24.10;86.00
22108;DHT22;11220;48.812;9.128;2023-07-31T15:40:18;24.10;85.80
22108;DHT22;11220;48.812;9.128;2023-07-31T15:42:44;24.10;85.50
22108;DHT22;11220;48.812;9.128;2023-07-31T15:45:09;24.20;85.40
22108;DHT22;11220;48.812;9.128;2023-07-31T15:47:36;24.20;85.20